sensor_id;sensor_type;location;lat;lon;timestamp;temperature;humidity
39503;DHT22;26970;49.900;10.774;2024-01-16T00:00:37;-0.90;99.90
39503;DHT22;26970;49.900;10.774;2024-01-16T00:03:03;-1.00;99.90
39503;DHT22;26970;49.900;10.774;2024-01-16T00:05:29;-1.00;99.90
39503;DHT22;26970;49.900;10.774;2024-01-16T00:07:55;-0.90;99.90
39503;DHT22;26970;49.900;10.774;2024-01-16T00:10:20;-0.90;99.90
39503;DHT22;26970;49.900;10.774;2024-01-16T00:12:46;-0.90;99.90
39503;DHT22;26970;49.900;10.774;2024-01-16T00:15:12;-1.00;99.90
39503;DHT22;26970;49.900;10.774;2024-01-16T00:17:37;-1.00;99.90
39503;DHT22;26970;49.900;10.774;2024-01-16T00:20:04;-0.90;99.90
39503;DHT22;26970;49.900;10.774;2024-01-16T00:22:30;-0.90;99.90
39503;DHT22;26970;49.900;10.774;2024-01-16T00:24:56;-1.00;99.90
39503;DHT22;26970;49.900;10.774;2024-01-16T00:27:21;-1.00;99.90
39503;DHT22;26970;49.900;10.774;2024-01-16T00:29:48;-1.00;99.90
39503;DHT22;26970;49.900;10.774;2024-01-16T00:32:13;-0.90;99.90
39503;DHT22;26970;49.900;10.774;2024-01-16T00:34:44;-1.00;99.90
39503;DHT22;26970;49.900;10.774;2024-01-16T00:37:10;-1.00;99.90
39503;DHT22;26970;49.900;10.774;2024-01-16T00:39:35;-1.00;99.90
39503;DHT22;26970;49.900;10.774;2024-01-16T00:42:02;-1.00;99.90
39503;DHT22;26970;49.900;10.774;2024-01-16T00:44:27;-1.00;99.90
39503;DHT22;26970;49.900;10.774;2024-01-16T00:46:53;-1.00;99.90
39503;DHT22;26970;49.900;10.774;2024-01-16T00:49:19;-1.00;99.90
39503;DHT22;26970;49.900;10.774;2024-01-16T00:51:45;-1.00;99.90
39503;DHT22;26970;49.900;10.774;2024-01-16T00:54:10;-1.00;99.90
39503;DHT22;26970;49.900;10.774;2024-01-16T00:56:36;-1.00;99.90
39503;DHT22;26970;49.900;10.774;2024-01-16T00:59:02;-1.00;99.90
39503;DHT22;26970;49.900;10.774;2024-01-16T01:01:28;-1.00;99.90
39503;DHT22;26970;49.900;10.774;2024-01-16T01:03:53;-1.10;99.90
39503;DHT22;26970;49.900;10.774;2024-01-16T01:06:20;-1.00;99.90
39503;DHT22;26970;49.900;10.774;2024-01-16T01:08:45;-1.10;99.90
39503;DHT22;26970;49.900;10.774;2024-01-16T01:11:12;-1.00;99.90
39503;DHT22;26970;49.900;10.774;2024-01-16T01:13:37;-1.10;99.90
39503;DHT22;26970;49.900;10.774;2024-01-16T01:16:03;-1.10;99.90
39503;DHT22;26970;49.900;10.774;2024-01-16T01:18:29;-1.10;99.90
39503;DHT22;26970;49.900;10.774;2024-01-16T01:20:55;-1.10;99.90
39503;DHT22;26970;49.900;10.774;2024-01-16T01:23:21;-1.10;99.90
39503;DHT22;26970;49.900;10.774;2024-01-16T01:25:46;-1.10;99.90
39503;DHT22;26970;49.900;10.774;2024-01-16T01:28:12;-1.10;99.90
39503;DHT22;26970;49.900;10.774;2024-01-16T01:30:37;-1.10;99.90
39503;DHT22;26970;49.900;10.774;2024-01-16T01:33:03;-1.10;99.90
39503;DHT22;26970;49.900;10.774;2024-01-16T01:35:29;-1.10;99.90
39503;DHT22;26970;49.900;10.774;2024-01-16T01:37:55;-1.10;99.90
39503;DHT22;26970;49.900;10.774;2024-01-16T01:40:20;-1.10;99.90
39503;DHT22;26970;49.900;10.774;2024-01-16T01:42:46;-1.10;99.90
39503;DHT22;26970;49.900;10.774;2024-01-16T01:45:12;-1.20;99.90
39503;DHT22;26970;49.900;10.774;2024-01-16T01:47:39;-1.20;99.90
39503;DHT22;26970;49.900;10.774;2024-01-16T01:50:06;-1.20;99.90
39503;DHT22;26970;49.900;10.774;2024-01-16T01:52:33;-1.20;99.90
39503;DHT22;26970;49.900;10.774;2024-01-16T01:55:00;-1.20;99.90
39503;DHT22;26970;49.900;10.774;2024-01-16T01:57:27;-1.20;99.90
39503;DHT22;26970;49.900;10.774;2024-01-16T01:59:52;-1.20;99.90
39503;DHT22;26970;49.900;10.774;2024-01-16T02:02:19;-1.20;99.90
39503;DHT22;26970;49.900;10.774;2024-01-16T02:04:45;-1.20;99.90
39503;DHT22;26970;49.900;10.774;2024-01-16T02:07:12;-1.20;99.90
39503;DHT22;26970;49.900;10.774;2024-01-16T02:09:38;-1.20;99.90
39503;DHT22;26970;49.900;10.774;2024-01-16T02:12:05;-1.20;99.90
39503;DHT22;26970;49.900;10.774;2024-01-16T02:14:31;-1.20;99.90
39503;DHT22;26970;49.900;10.774;2024-01-16T02:16:57;-1.20;99.90
39503;DHT22;26970;49.900;10.774;2024-01-16T02:19:22;-1.10;99.90
39503;DHT22;26970;49.900;10.774;2024-01-16T02:21:51;-1.10;99.90
39503;DHT22;26970;49.900;10.774;2024-01-16T02:24:19;-1.20;99.90
39503;DHT22;26970;49.900;10.774;2024-01-16T02:26:44;-1.20;99.90
39503;DHT22;26970;49.900;10.774;2024-01-16T02:29:10;-1.20;99.90
39503;DHT22;26970;49.900;10.774;2024-01-16T02:31:36;-1.20;99.90
39503;DHT22;26970;49.900;10.774;2024-01-16T02:34:02;-1.10;99.90
39503;DHT22;26970;49.900;10.774;2024-01-16T02:36:29;-1.10;99.90
39503;DHT22;26970;49.900;10.774;2024-01-16T02:38:55;-1.10;99.90
39503;DHT22;26970;49.900;10.774;2024-01-16T02:41:21;-1.10;99.90
39503;DHT22;26970;49.900;10.774;2024-01-16T02:43:48;-1.10;99.90
39503;DHT22;26970;49.900;10.774;2024-01-16T02:46:14;-1.10;99.90
39503;DHT22;26970;49.900;10.774;2024-01-16T02:48:40;-1.10;99.90
39503;DHT22;26970;49.900;10.774;2024-01-16T02:51:07;-1.10;99.90
39503;DHT22;26970;49.900;10.774;2024-01-16T02:53:33;-1.10;99.90
39503;DHT22;26970;49.900;10.774;2024-01-16T02:55:58;-1.10;99.90
39503;DHT22;26970;49.900;10.774;2024-01-16T02:58:26;-1.10;99.90
39503;DHT22;26970;49.900;10.774;2024-01-16T03:00:51;-1.10;99.90
39503;DHT22;26970;49.900;10.774;2024-01-16T03:03:18;-1.10;99.90
39503;DHT22;26970;49.900;10.774;2024-01-16T03:05:44;-1.10;99.90
39503;DHT22;26970;49.900;10.774;2024-01-16T03:08:10;-1.10;99.90
39503;DHT22;26970;49.900;10.774;2024-01-16T03:10:36;-1.00;99.90
39503;DHT22;26970;49.900;10.774;2024-01-16T03:13:02;-1.10;99.90
39503;DHT22;26970;49.900;10.774;2024-01-16T03:15:28;-1.10;99.90
39503;DHT22;26970;49.900;10.774;2024-01-16T03:17:57;-1.10;99.90
39503;DHT22;26970;49.900;10.774;2024-01-16T03:20:22;-1.10;99.90
39503;DHT22;26970;49.900;10.774;2024-01-16T03:22:49;-1.10;99.90
39503;DHT22;26970;49.900;10.774;2024-01-16T03:25:15;-1.20;99.90
39503;DHT22;26970;49.900;10.774;2024-01-16T03:27:41;-1.20;99.90
39503;DHT22;26970;49.900;10.774;2024-01-16T03:30:07;-1.20;99.90
39503;DHT22;26970;49.900;10.774;2024-01-16T03:32:34;-1.20;99.90
39503;DHT22;26970;49.900;10.774;2024-01-16T03:34:59;-1.20;99.90
39503;DHT22;26970;49.900;10.774;2024-01-16T03:37:25;-1.20;99.90
39503;DHT22;26970;49.900;10.774;2024-01-16T03:39:51;-1.20;99.90
39503;DHT22;26970;49.900;10.774;2024-01-16T03:42:16;-1.20;99.90
39503;DHT22;26970;49.900;10.774;2024-01-16T03:44:42;-1.20;99.90
39503;DHT22;26970;49.900;10.774;2024-01-16T03:47:08;-1.20;99.90
39503;DHT22;26970;49.900;10.774;2024-01-16T03:49:33;-1.20;99.90
39503;DHT22;26970;49.900;10.774;2024-01-16T03:51:59;-1.30;99.90
39503;DHT22;26970;49.900;10.774;2024-01-16T03:54:25;-1.30;99.90
39503;DHT22;26970;49.900;10.774;2024-01-16T03:56:51;-1.30;99.90
39503;DHT22;26970;49.900;10.774;2024-01-16T03:59:16;-1.30;99.90
39503;DHT22;26970;49.900;10.774;2024-01-16T04:01:42;-1.30;99.90
39503;DHT22;26970;49.900;10.774;2024-01-16T04:04:10;-1.30;99.90
39503;DHT22;26970;49.900;10.774;2024-01-16T04:06:35;-1.30;99.90
39503;DHT22;26970;49.900;10.774;2024-01-16T04:09:01;-1.30;99.90
39503;DHT22;26970;49.900;10.774;2024-01-16T04:11:28;-1.30;99.90
39503;DHT22;26970;49.900;10.774;2024-01-16T04:13:54;-1.30;99.90
39503;DHT22;26970;49.900;10.774;2024-01-16T04:16:19;-1.30;99.90
39503;DHT22;26970;49.900;10.774;2024-01-16T04:18:45;-1.40;99.90
39503;DHT22;26970;49.900;10.774;2024-01-16T04:21:10;-1.40;99.90
39503;DHT22;26970;49.900;10.774;2024-01-16T04:23:36;-1.40;99.90
39503;DHT22;26970;49.900;10.774;2024-01-16T04:26:02;-1.40;99.90
39503;DHT22;26970;49.900;10.774;2024-01-16T04:28:28;-1.40;99.90
39503;DHT22;26970;49.900;10.774;2024-01-16T04:30:53;-1.40;99.90
39503;DHT22;26970;49.900;10.774;2024-01-16T04:33:19;-1.40;99.90
39503;DHT22;26970;49.900;10.774;2024-01-16T04:35:45;-1.50;99.90
39503;DHT22;26970;49.900;10.774;2024-01-16T04:38:10;-1.60;99.90
39503;DHT22;26970;49.900;10.774;2024-01-16T04:40:36;-1.60;99.90
39503;DHT22;26970;49.900;10.774;2024-01-16T04:43:02;-1.70;99.90
39503;DHT22;26970;49.900;10.774;2024-01-16T04:45:28;-1.70;99.90
39503;DHT22;26970;49.900;10.774;2024-01-16T04:47:53;-1.70;99.90
39503;DHT22;26970;49.900;10.774;2024-01-16T04:50:19;-1.70;99.90
39503;DHT22;26970;49.900;10.774;2024-01-16T04:52:44;-1.70;99.90
39503;DHT22;26970;49.900;10.774;2024-01-16T04:55:10;-1.70;99.90
39503;DHT22;26970;49.900;10.774;2024-01-16T04:57:35;-1.60;99.90
39503;DHT22;26970;49.900;10.774;2024-01-16T05:00:01;-1.60;99.90
39503;DHT22;26970;49.900;10.774;2024-01-16T05:02:34;-1.60;99.90
39503;DHT22;26970;49.900;10.774;2024-01-16T05:05:00;-1.60;99.90
39503;DHT22;26970;49.900;10.774;2024-01-16T05:07:26;-1.60;99.90
39503;DHT22;26970;49.900;10.774;2024-01-16T05:09:52;-1.70;99.90
39503;DHT22;26970;49.900;10.774;2024-01-16T05:12:17;-1.70;99.90
39503;DHT22;26970;49.900;10.774;2024-01-16T05:14:43;-1.80;99.90
39503;DHT22;26970;49.900;10.774;2024-01-16T05:17:08;-1.80;99.90
39503;DHT22;26970;49.900;10.774;2024-01-16T05:19:34;-1.90;99.90
39503;DHT22;26970;49.900;10.774;2024-01-16T05:22:00;-1.90;99.90
39503;DHT22;26970;49.900;10.774;2024-01-16T05:24:25;-2.00;99.90
39503;DHT22;26970;49.900;10.774;2024-01-16T05:26:51;-2.00;99.90
39503;DHT22;26970;49.900;10.774;2024-01-16T05:29:18;-2.00;99.90
39503;DHT22;26970;49.900;10.774;2024-01-16T05:31:43;-2.00;99.90
39503;DHT22;26970;49.900;10.774;2024-01-16T05:34:10;-1.90;99.90
39503;DHT22;26970;49.900;10.774;2024-01-16T05:36:36;-2.00;99.90
39503;DHT22;26970;49.900;10.774;2024-01-16T05:39:02;-1.90;99.90
39503;DHT22;26970;49.900;10.774;2024-01-16T05:41:32;-1.80;99.90
39503;DHT22;26970;49.900;10.774;2024-01-16T05:43:58;-1.80;99.90
39503;DHT22;26970;49.900;10.774;2024-01-16T05:46:24;-1.80;99.90
39503;DHT22;26970;49.900;10.774;2024-01-16T05:48:49;-1.80;99.90
39503;DHT22;26970;49.900;10.774;2024-01-16T05:51:15;-1.80;99.90
39503;DHT22;26970;49.900;10.774;2024-01-16T05:53:41;-1.80;99.90
39503;DHT22;26970;49.900;10.774;2024-01-16T05:56:06;-1.90;99.90
39503;DHT22;26970;49.900;10.774;2024-01-16T05:58:33;-1.90;99.90
39503;DHT22;26970;49.900;10.774;2024-01-16T06:01:07;-1.90;99.90
39503;DHT22;26970;49.900;10.774;2024-01-16T06:03:32;-1.90;99.90
39503;DHT22;26970;49.900;10.774;2024-01-16T06:05:58;-2.00;99.90
39503;DHT22;26970;49.900;10.774;2024-01-16T06:08:24;-2.00;99.90
39503;DHT22;26970;49.900;10.774;2024-01-16T06:10:50;-2.00;99.90
39503;DHT22;26970;49.900;10.774;2024-01-16T06:13:16;-2.00;99.90
39503;DHT22;26970;49.900;10.774;2024-01-16T06:15:42;-1.90;99.90
39503;DHT22;26970;49.900;10.774;2024-01-16T06:18:08;-1.90;99.90
39503;DHT22;26970;49.900;10.774;2024-01-16T06:20:34;-1.90;99.90
39503;DHT22;26970;49.900;10.774;2024-01-16T06:22:59;-1.90;99.90
39503;DHT22;26970;49.900;10.774;2024-01-16T06:25:25;-1.90;99.90
39503;DHT22;26970;49.900;10.774;2024-01-16T06:27:51;-1.90;99.90
39503;DHT22;26970;49.900;10.774;2024-01-16T06:30:16;-1.90;99.90
39503;DHT22;26970;49.900;10.774;2024-01-16T06:32:42;-1.90;99.90
39503;DHT22;26970;49.900;10.774;2024-01-16T06:35:07;-1.90;99.90
39503;DHT22;26970;49.900;10.774;2024-01-16T06:37:33;-1.90;99.90
39503;DHT22;26970;49.900;10.774;2024-01-16T06:39:59;-1.80;99.90
39503;DHT22;26970;49.900;10.774;2024-01-16T06:42:24;-1.70;99.90
39503;DHT22;26970;49.900;10.774;2024-01-16T06:44:50;-1.80;99.90
39503;DHT22;26970;49.900;10.774;2024-01-16T06:47:16;-1.70;99.90
39503;DHT22;26970;49.900;10.774;2024-01-16T06:49:42;-1.70;99.90
39503;DHT22;26970;49.900;10.774;2024-01-16T06:52:08;-1.70;99.90
39503;DHT22;26970;49.900;10.774;2024-01-16T06:54:34;-1.70;99.90
39503;DHT22;26970;49.900;10.774;2024-01-16T06:57:00;-1.70;99.90
39503;DHT22;26970;49.900;10.774;2024-01-16T06:59:25;-1.70;99.90
39503;DHT22;26970;49.900;10.774;2024-01-16T07:01:52;-1.70;99.90
39503;DHT22;26970;49.900;10.774;2024-01-16T07:04:17;-1.70;99.90
39503;DHT22;26970;49.900;10.774;2024-01-16T07:06:43;-1.70;99.90
39503;DHT22;26970;49.900;10.774;2024-01-16T07:09:09;-1.80;99.90
39503;DHT22;26970;49.900;10.774;2024-01-16T07:11:38;-1.90;99.90
39503;DHT22;26970;49.900;10.774;2024-01-16T07:14:08;-1.90;99.90
39503;DHT22;26970;49.900;10.774;2024-01-16T07:16:34;-2.00;99.90
39503;DHT22;26970;49.900;10.774;2024-01-16T07:19:00;-2.10;99.90
39503;DHT22;26970;49.900;10.774;2024-01-16T07:21:27;-2.20;99.90
39503;DHT22;26970;49.900;10.774;2024-01-16T07:23:53;-2.20;99.90
39503;DHT22;26970;49.900;10.774;2024-01-16T07:26:19;-2.10;99.90
39503;DHT22;26970;49.900;10.774;2024-01-16T07:28:44;-2.10;99.90
39503;DHT22;26970;49.900;10.774;2024-01-16T07:31:10;-2.00;99.90
39503;DHT22;26970;49.900;10.774;2024-01-16T07:33:37;-2.00;99.90
39503;DHT22;26970;49.900;10.774;2024-01-16T07:36:02;-1.90;99.90
39503;DHT22;26970;49.900;10.774;2024-01-16T07:38:28;-1.90;99.90
39503;DHT22;26970;49.900;10.774;2024-01-16T07:40:53;-1.80;99.90
39503;DHT22;26970;49.900;10.774;2024-01-16T07:43:19;-1.80;99.90
39503;DHT22;26970;49.900;10.774;2024-01-16T07:45:45;-1.80;99.90
39503;DHT22;26970;49.900;10.774;2024-01-16T07:48:10;-1.80;99.90
39503;DHT22;26970;49.900;10.774;2024-01-16T07:50:36;-1.70;99.90
39503;DHT22;26970;49.900;10.774;2024-01-16T07:53:01;-1.70;99.90
39503;DHT22;26970;49.900;10.774;2024-01-16T07:55:27;-1.70;99.90
39503;DHT22;26970;49.900;10.774;2024-01-16T07:57:54;-1.70;99.90
39503;DHT22;26970;49.900;10.774;2024-01-16T08:00:20;-1.70;99.90
39503;DHT22;26970;49.900;10.774;2024-01-16T08:02:47;-1.70;99.90
39503;DHT22;26970;49.900;10.774;2024-01-16T08:05:13;-1.70;99.90
39503;DHT22;26970;49.900;10.774;2024-01-16T08:07:38;-1.70;99.90
39503;DHT22;26970;49.900;10.774;2024-01-16T08:10:04;-1.70;99.90
39503;DHT22;26970;49.900;10.774;2024-01-16T08:12:30;-1.60;99.90
39503;DHT22;26970;49.900;10.774;2024-01-16T08:14:55;-1.70;99.90
39503;DHT22;26970;49.900;10.774;2024-01-16T08:17:21;-1.60;99.90
39503;DHT22;26970;49.900;10.774;2024-01-16T08:19:47;-1.60;99.90
39503;DHT22;26970;49.900;10.774;2024-01-16T08:22:13;-1.60;99.90
39503;DHT22;26970;49.900;10.774;2024-01-16T08:24:38;-1.50;99.90
39503;DHT22;26970;49.900;10.774;2024-01-16T08:27:04;-1.70;99.90
39503;DHT22;26970;49.900;10.774;2024-01-16T08:29:30;-1.70;99.90
39503;DHT22;26970;49.900;10.774;2024-01-16T08:31:56;-1.70;99.90
39503;DHT22;26970;49.900;10.774;2024-01-16T08:34:21;-1.70;99.90
39503;DHT22;26970;49.900;10.774;2024-01-16T08:36:47;-1.70;99.90
39503;DHT22;26970;49.900;10.774;2024-01-16T08:39:12;-1.70;99.90
39503;DHT22;26970;49.900;10.774;2024-01-16T08:41:38;-1.70;99.90
39503;DHT22;26970;49.900;10.774;2024-01-16T08:44:04;-1.70;99.90
39503;DHT22;26970;49.900;10.774;2024-01-16T08:46:29;-1.70;99.90
39503;DHT22;26970;49.900;10.774;2024-01-16T08:48:55;-1.70;99.90
39503;DHT22;26970;49.900;10.774;2024-01-16T08:51:21;-1.70;99.90
39503;DHT22;26970;49.900;10.774;2024-01-16T08:53:47;-1.60;99.90
39503;DHT22;26970;49.900;10.774;2024-01-16T08:56:13;-1.60;99.90
39503;DHT22;26970;49.900;10.774;2024-01-16T08:58:38;-1.50;99.90
39503;DHT22;26970;49.900;10.774;2024-01-16T09:01:05;-1.50;99.90
39503;DHT22;26970;49.900;10.774;2024-01-16T09:03:34;-1.40;99.90
39503;DHT22;26970;49.900;10.774;2024-01-16T09:06:00;-1.40;99.90
39503;DHT22;26970;49.900;10.774;2024-01-16T09:08:26;-1.30;99.90
39503;DHT22;26970;49.900;10.774;2024-01-16T09:10:54;-1.20;99.90
39503;DHT22;26970;49.900;10.774;2024-01-16T09:13:20;-1.20;99.90
39503;DHT22;26970;49.900;10.774;2024-01-16T09:15:47;-1.10;99.90
39503;DHT22;26970;49.900;10.774;2024-01-16T09:18:13;-1.10;99.90
39503;DHT22;26970;49.900;10.774;2024-01-16T09:20:39;-1.10;99.90
39503;DHT22;26970;49.900;10.774;2024-01-16T09:23:05;-1.20;99.90
39503;DHT22;26970;49.900;10.774;2024-01-16T09:25:30;-1.20;99.90
39503;DHT22;26970;49.900;10.774;2024-01-16T09:27:56;-1.10;99.90
39503;DHT22;26970;49.900;10.774;2024-01-16T09:30:21;-1.00;99.90
39503;DHT22;26970;49.900;10.774;2024-01-16T09:32:48;-0.90;99.90
39503;DHT22;26970;49.900;10.774;2024-01-16T09:35:17;-0.90;99.90
39503;DHT22;26970;49.900;10.774;2024-01-16T09:37:42;-0.90;99.90
39503;DHT22;26970;49.900;10.774;2024-01-16T09:40:09;-0.90;99.90
39503;DHT22;26970;49.900;10.774;2024-01-16T09:42:34;-0.90;99.90
39503;DHT22;26970;49.900;10.774;2024-01-16T09:45:00;-0.90;99.90
39503;DHT22;26970;49.900;10.774;2024-01-16T09:47:29;-0.90;99.90
39503;DHT22;26970;49.900;10.774;2024-01-16T09:49:57;-0.90;99.90
39503;DHT22;26970;49.900;10.774;2024-01-16T09:52:24;-0.90;99.90
39503;DHT22;26970;49.900;10.774;2024-01-16T09:54:50;-0.90;99.90
39503;DHT22;26970;49.900;10.774;2024-01-16T09:57:18;-0.90;99.90
39503;DHT22;26970;49.900;10.774;2024-01-16T09:59:46;-0.90;99.90
39503;DHT22;26970;49.900;10.774;2024-01-16T10:02:13;-0.80;99.90
39503;DHT22;26970;49.900;10.774;2024-01-16T10:04:41;-0.80;99.90
39503;DHT22;26970;49.900;10.774;2024-01-16T10:07:08;-0.70;99.90
39503;DHT22;26970;49.900;10.774;2024-01-16T10:09:34;-0.70;99.90
39503;DHT22;26970;49.900;10.774;2024-01-16T10:12:00;-0.70;99.90
39503;DHT22;26970;49.900;10.774;2024-01-16T10:14:26;-0.60;99.90
39503;DHT22;26970;49.900;10.774;2024-01-16T10:16:59;-0.60;99.90
39503;DHT22;26970;49.900;10.774;2024-01-16T10:19:31;-0.60;99.90
39503;DHT22;26970;49.900;10.774;2024-01-16T10:22:02;-0.60;99.90
39503;DHT22;26970;49.900;10.774;2024-01-16T10:24:28;-0.60;99.90
39503;DHT22;26970;49.900;10.774;2024-01-16T10:26:58;-0.60;99.90
39503;DHT22;26970;49.900;10.774;2024-01-16T10:29:31;-0.60;99.90
39503;DHT22;26970;49.900;10.774;2024-01-16T10:31:58;-0.50;99.90
39503;DHT22;26970;49.900;10.774;2024-01-16T10:34:24;-0.40;99.90
39503;DHT22;26970;49.900;10.774;2024-01-16T10:36:51;0.10;99.90
39503;DHT22;26970;49.900;10.774;2024-01-16T10:39:18;-0.20;99.90
39503;DHT22;26970;49.900;10.774;2024-01-16T10:42:04;-0.20;99.90
39503;DHT22;26970;49.900;10.774;2024-01-16T10:44:29;-0.20;99.90
39503;DHT22;26970;49.900;10.774;2024-01-16T10:47:10;0.10;99.90
39503;DHT22;26970;49.900;10.774;2024-01-16T10:49:37;0.20;99.90
39503;DHT22;26970;49.900;10.774;2024-01-16T10:52:06;0.30;99.90
39503;DHT22;26970;49.900;10.774;2024-01-16T10:54:35;0.20;99.90
39503;DHT22;26970;49.900;10.774;2024-01-16T10:57:03;0.00;99.90
39503;DHT22;26970;49.900;10.774;2024-01-16T10:59:36;0.00;99.90
39503;DHT22;26970;49.900;10.774;2024-01-16T11:02:07;0.20;99.90
39503;DHT22;26970;49.900;10.774;2024-01-16T11:04:37;0.20;99.90
39503;DHT22;26970;49.900;10.774;2024-01-16T11:07:04;0.10;99.90
39503;DHT22;26970;49.900;10.774;2024-01-16T11:09:31;0.30;99.90
39503;DHT22;26970;49.900;10.774;2024-01-16T11:11:57;0.30;99.90
39503;DHT22;26970;49.900;10.774;2024-01-16T11:14:25;0.20;99.90
39503;DHT22;26970;49.900;10.774;2024-01-16T11:16:51;0.20;99.90
39503;DHT22;26970;49.900;10.774;2024-01-16T11:19:19;0.10;99.90
39503;DHT22;26970;49.900;10.774;2024-01-16T11:21:45;0.10;99.90
39503;DHT22;26970;49.900;10.774;2024-01-16T11:24:12;0.10;99.90
39503;DHT22;26970;49.900;10.774;2024-01-16T11:26:41;0.10;99.90
39503;DHT22;26970;49.900;10.774;2024-01-16T11:31:58;0.10;99.90
39503;DHT22;26970;49.900;10.774;2024-01-16T11:37:13;0.00;99.90
39503;DHT22;26970;49.900;10.774;2024-01-16T11:39:39;0.00;99.90
39503;DHT22;26970;49.900;10.774;2024-01-16T11:42:06;0.00;99.90
39503;DHT22;26970;49.900;10.774;2024-01-16T11:44:40;0.00;99.90
39503;DHT22;26970;49.900;10.774;2024-01-16T11:47:17;0.10;99.90
39503;DHT22;26970;49.900;10.774;2024-01-16T11:49:43;0.20;99.90
39503;DHT22;26970;49.900;10.774;2024-01-16T11:52:09;0.30;99.90
39503;DHT22;26970;49.900;10.774;2024-01-16T11:54:41;0.30;99.90
39503;DHT22;26970;49.900;10.774;2024-01-16T11:57:45;0.30;99.90
39503;DHT22;26970;49.900;10.774;2024-01-16T12:00:19;0.30;99.90
39503;DHT22;26970;49.900;10.774;2024-01-16T12:02:48;0.30;99.90
39503;DHT22;26970;49.900;10.774;2024-01-16T12:05:15;0.40;99.90
39503;DHT22;26970;49.900;10.774;2024-01-16T12:07:46;0.40;99.90
39503;DHT22;26970;49.900;10.774;2024-01-16T12:10:15;0.50;99.90
39503;DHT22;26970;49.900;10.774;2024-01-16T12:12:41;0.50;99.90
39503;DHT22;26970;49.900;10.774;2024-01-16T12:15:13;0.50;99.90
39503;DHT22;26970;49.900;10.774;2024-01-16T12:17:57;0.50;99.90
39503;DHT22;26970;49.900;10.774;2024-01-16T12:20:25;0.60;99.90
39503;DHT22;26970;49.900;10.774;2024-01-16T12:23:03;0.50;99.90
39503;DHT22;26970;49.900;10.774;2024-01-16T12:25:31;0.60;99.90
39503;DHT22;26970;49.900;10.774;2024-01-16T12:28:07;0.70;99.90
39503;DHT22;26970;49.900;10.774;2024-01-16T12:30:37;0.70;99.90
39503;DHT22;26970;49.900;10.774;2024-01-16T12:33:10;0.70;99.90
39503;DHT22;26970;49.900;10.774;2024-01-16T12:35:44;0.90;99.90
39503;DHT22;26970;49.900;10.774;2024-01-16T12:38:14;0.80;99.90
39503;DHT22;26970;49.900;10.774;2024-01-16T12:40:47;0.90;99.90
39503;DHT22;26970;49.900;10.774;2024-01-16T12:43:13;0.80;99.90
39503;DHT22;26970;49.900;10.774;2024-01-16T12:45:39;0.90;99.90
39503;DHT22;26970;49.900;10.774;2024-01-16T12:48:05;0.90;99.90
39503;DHT22;26970;49.900;10.774;2024-01-16T12:50:32;0.90;99.90
39503;DHT22;26970;49.900;10.774;2024-01-16T12:53:05;0.80;99.90
39503;DHT22;26970;49.900;10.774;2024-01-16T12:55:39;0.80;99.90
39503;DHT22;26970;49.900;10.774;2024-01-16T12:58:21;0.70;99.90
39503;DHT22;26970;49.900;10.774;2024-01-16T13:00:50;0.70;99.90
39503;DHT22;26970;49.900;10.774;2024-01-16T13:03:26;0.70;99.90
39503;DHT22;26970;49.900;10.774;2024-01-16T13:05:56;0.70;99.90
39503;DHT22;26970;49.900;10.774;2024-01-16T13:08:22;0.70;99.90
39503;DHT22;26970;49.900;10.774;2024-01-16T13:11:06;0.70;99.90
39503;DHT22;26970;49.900;10.774;2024-01-16T13:13:32;0.80;99.90
39503;DHT22;26970;49.900;10.774;2024-01-16T13:15:58;0.80;99.90
39503;DHT22;26970;49.900;10.774;2024-01-16T13:18:28;0.90;99.90
39503;DHT22;26970;49.900;10.774;2024-01-16T13:20:56;0.90;99.90
39503;DHT22;26970;49.900;10.774;2024-01-16T13:23:22;0.90;99.90
39503;DHT22;26970;49.900;10.774;2024-01-16T13:25:49;0.90;99.90
39503;DHT22;26970;49.900;10.774;2024-01-16T13:28:15;0.80;99.90
39503;DHT22;26970;49.900;10.774;2024-01-16T13:30:42;0.70;99.90
39503;DHT22;26970;49.900;10.774;2024-01-16T13:33:08;0.70;99.90
39503;DHT22;26970;49.900;10.774;2024-01-16T13:35:35;0.70;99.90
39503;DHT22;26970;49.900;10.774;2024-01-16T13:38:01;0.70;99.90
39503;DHT22;26970;49.900;10.774;2024-01-16T13:40:29;0.60;99.90
39503;DHT22;26970;49.900;10.774;2024-01-16T13:42:55;0.60;99.90
39503;DHT22;26970;49.900;10.774;2024-01-16T13:45:20;0.60;99.90
39503;DHT22;26970;49.900;10.774;2024-01-16T13:47:46;0.60;99.90
39503;DHT22;26970;49.900;10.774;2024-01-16T13:50:12;0.60;99.90
39503;DHT22;26970;49.900;10.774;2024-01-16T13:52:38;0.70;99.90
39503;DHT22;26970;49.900;10.774;2024-01-16T13:55:06;0.70;99.90
39503;DHT22;26970;49.900;10.774;2024-01-16T13:57:32;0.60;99.90
39503;DHT22;26970;49.900;10.774;2024-01-16T13:59:58;0.60;99.90
39503;DHT22;26970;49.900;10.774;2024-01-16T14:02:24;0.50;99.90
39503;DHT22;26970;49.900;10.774;2024-01-16T14:04:50;0.50;99.90
39503;DHT22;26970;49.900;10.774;2024-01-16T14:07:15;0.50;99.90
39503;DHT22;26970;49.900;10.774;2024-01-16T14:09:41;0.50;99.90
39503;DHT22;26970;49.900;10.774;2024-01-16T14:12:08;0.30;99.90
39503;DHT22;26970;49.900;10.774;2024-01-16T14:14:34;0.20;99.90
39503;DHT22;26970;49.900;10.774;2024-01-16T14:17:00;0.20;99.90
39503;DHT22;26970;49.900;10.774;2024-01-16T14:19:27;0.20;99.90
39503;DHT22;26970;49.900;10.774;2024-01-16T14:21:55;0.20;99.90
39503;DHT22;26970;49.900;10.774;2024-01-16T14:24:21;0.20;99.90
39503;DHT22;26970;49.900;10.774;2024-01-16T14:26:47;0.20;99.90
39503;DHT22;26970;49.900;10.774;2024-01-16T14:29:12;0.30;99.90
39503;DHT22;26970;49.900;10.774;2024-01-16T14:31:41;0.20;99.90
39503;DHT22;26970;49.900;10.774;2024-01-16T14:34:12;0.10;99.90
39503;DHT22;26970;49.900;10.774;2024-01-16T14:36:41;0.10;99.90
39503;DHT22;26970;49.900;10.774;2024-01-16T14:39:07;0.00;99.90
39503;DHT22;26970;49.900;10.774;2024-01-16T14:41:39;-0.10;99.90
39503;DHT22;26970;49.900;10.774;2024-01-16T14:44:04;-0.10;99.90
39503;DHT22;26970;49.900;10.774;2024-01-16T14:46:31;-0.20;99.90
39503;DHT22;26970;49.900;10.774;2024-01-16T14:48:58;-0.20;99.90
39503;DHT22;26970;49.900;10.774;2024-01-16T14:51:23;-0.20;99.90
39503;DHT22;26970;49.900;10.774;2024-01-16T14:53:49;-0.20;99.90
39503;DHT22;26970;49.900;10.774;2024-01-16T14:56:14;-0.30;99.90
39503;DHT22;26970;49.900;10.774;2024-01-16T14:58:40;-0.40;99.90
39503;DHT22;26970;49.900;10.774;2024-01-16T15:01:06;-0.50;99.90
39503;DHT22;26970;49.900;10.774;2024-01-16T15:03:32;-0.50;99.90
39503;DHT22;26970;49.900;10.774;2024-01-16T15:05:58;-0.70;99.90
39503;DHT22;26970;49.900;10.774;2024-01-16T15:08:24;-0.70;99.90
39503;DHT22;26970;49.900;10.774;2024-01-16T15:10:51;-0.70;99.90
39503;DHT22;26970;49.900;10.774;2024-01-16T15:13:17;-0.70;99.90
39503;DHT22;26970;49.900;10.774;2024-01-16T15:15:42;-0.70;99.90
39503;DHT22;26970;49.900;10.774;2024-01-16T15:18:08;-0.70;99.90
39503;DHT22;26970;49.900;10.774;2024-01-16T15:20:34;-0.70;99.90
39503;DHT22;26970;49.900;10.774;2024-01-16T15:22:59;-0.70;99.90